createdAt,value
2023-05-11T00:01:36.397Z,6.49
2023-05-11T00:04:03.220Z,6.43
2023-05-11T00:06:30.194Z,6.47
2023-05-11T00:08:57.097Z,6.49
2023-05-11T00:11:23.904Z,6.51
2023-05-11T00:13:50.579Z,6.38
2023-05-11T00:16:17.398Z,6.43
2023-05-11T00:18:44.562Z,6.48
2023-05-11T00:21:11.537Z,6.47
2023-05-11T00:23:38.529Z,6.35
2023-05-11T00:26:05.578Z,6.35
2023-05-11T00:28:32.289Z,6.31
2023-05-11T00:30:59.316Z,6.39
2023-05-11T00:33:26.343Z,6.31
2023-05-11T00:35:53.224Z,6.37
2023-05-11T00:38:19.977Z,6.36
2023-05-11T00:40:48.492Z,6.27
2023-05-11T00:43:15.801Z,6.27
2023-05-11T00:45:43.872Z,6.33
2023-05-11T00:48:10.773Z,6.31
2023-05-11T00:50:37.616Z,6.23
2023-05-11T00:53:04.404Z,6.31
2023-05-11T00:55:31.630Z,6.30
2023-05-11T00:57:58.430Z,6.39
2023-05-11T01:00:25.381Z,6.43
2023-05-11T01:02:52.643Z,6.46
2023-05-11T01:05:19.982Z,6.38
2023-05-11T01:07:53.186Z,6.33
2023-05-11T01:10:37.222Z,6.25
2023-05-11T01:13:31.569Z,6.23
2023-05-11T01:15:58.593Z,6.26
2023-05-11T01:18:39.948Z,6.27
2023-05-11T01:21:10.569Z,6.25
2023-05-11T01:23:40.575Z,6.21
2023-05-11T01:26:16.805Z,6.14
2023-05-11T01:29:02.898Z,6.05
2023-05-11T01:31:33.546Z,6.01
2023-05-11T01:34:05.849Z,5.95
2023-05-11T01:36:34.412Z,5.81
2023-05-11T01:39:03.205Z,5.64
2023-05-11T01:41:31.436Z,5.56
2023-05-11T01:44:00.242Z,5.65
2023-05-11T01:46:27.810Z,5.79
2023-05-11T01:48:56.311Z,5.76
2023-05-11T01:51:28.698Z,5.89
2023-05-11T01:53:56.035Z,5.91
2023-05-11T01:56:23.112Z,5.84
2023-05-11T01:58:49.877Z,5.88
2023-05-11T02:01:17.935Z,3.63
2023-05-11T02:03:44.769Z,3.86
2023-05-11T02:06:11.632Z,4.26
2023-05-11T02:08:39.210Z,4.64
2023-05-11T02:11:06.094Z,4.59
2023-05-11T02:13:34.142Z,4.61
2023-05-11T02:16:00.973Z,4.62
2023-05-11T02:18:27.990Z,4.74
2023-05-11T02:20:58.982Z,4.84
2023-05-11T02:23:27.117Z,4.86
2023-05-11T02:25:54.195Z,4.93
2023-05-11T02:28:21.660Z,4.99
2023-05-11T02:30:50.207Z,5.16
2023-05-11T02:33:22.095Z,5.16
2023-05-11T02:35:49.045Z,4.89
2023-05-11T02:38:16.496Z,4.90
2023-05-11T02:40:47.812Z,4.85
2023-05-11T02:43:21.569Z,4.82
2023-05-11T02:45:53.788Z,4.92
2023-05-11T02:48:26.275Z,5.03
2023-05-11T02:50:54.536Z,5.01
2023-05-11T02:53:23.639Z,5.04
2023-05-11T02:55:50.705Z,5.07
2023-05-11T02:58:18.092Z,5.13
2023-05-11T03:00:47.285Z,5.23
2023-05-11T03:03:14.624Z,5.44
2023-05-11T03:05:41.556Z,5.47
2023-05-11T03:08:08.711Z,5.54
2023-05-11T03:10:36.678Z,5.73
2023-05-11T03:13:03.510Z,5.71
2023-05-11T03:15:30.642Z,5.64
2023-05-11T03:17:58.567Z,5.64
2023-05-11T03:20:25.473Z,5.83
2023-05-11T03:22:52.355Z,6.17
2023-05-11T03:25:19.297Z,6.47
2023-05-11T03:27:46.499Z,6.71
2023-05-11T03:30:14.224Z,6.89
2023-05-11T03:32:44.012Z,7.04
2023-05-11T03:35:10.937Z,7.04
2023-05-11T03:37:38.065Z,7.31
2023-05-11T03:40:06.059Z,7.61
2023-05-11T03:42:38.675Z,7.93
2023-05-11T03:45:06.561Z,8.18
2023-05-11T03:47:33.987Z,8.46
2023-05-11T03:50:01.298Z,8.62
2023-05-11T03:52:28.921Z,8.84
2023-05-11T03:54:56.111Z,9.07
2023-05-11T03:57:25.414Z,9.36
2023-05-11T03:59:52.239Z,9.61
2023-05-11T04:02:19.295Z,9.74
2023-05-11T04:04:46.187Z,9.79
2023-05-11T04:07:13.096Z,9.80
2023-05-11T04:09:39.869Z,9.99
2023-05-11T04:12:07.473Z,10.17
2023-05-11T04:14:34.472Z,10.38
2023-05-11T04:17:01.243Z,10.51
2023-05-11T04:19:28.529Z,10.67
2023-05-11T04:21:55.235Z,10.90
2023-05-11T04:24:22.012Z,10.99
2023-05-11T04:26:48.738Z,11.08
2023-05-11T04:29:15.446Z,11.34
2023-05-11T04:31:42.167Z,11.46
2023-05-11T04:34:08.996Z,11.64
2023-05-11T04:36:36.835Z,11.87
2023-05-11T04:39:04.245Z,12.03
2023-05-11T04:41:32.522Z,12.37
2023-05-11T04:44:01.043Z,12.60
2023-05-11T04:46:28.815Z,12.56
2023-05-11T04:48:56.061Z,12.70
2023-05-11T04:51:23.214Z,13.02
2023-05-11T04:53:50.491Z,13.06
2023-05-11T04:56:20.734Z,13.21
2023-05-11T04:58:48.840Z,13.28
2023-05-11T05:01:15.639Z,13.41
2023-05-11T05:03:42.609Z,13.75
2023-05-11T05:06:09.355Z,14.15
2023-05-11T05:08:37.129Z,14.35
2023-05-11T05:11:04.469Z,14.50
2023-05-11T05:13:31.236Z,14.62
2023-05-11T05:15:58.046Z,14.83
2023-05-11T05:18:24.970Z,15.00
2023-05-11T05:20:51.871Z,15.23
2023-05-11T05:23:18.835Z,15.46
2023-05-11T05:25:46.001Z,15.67
2023-05-11T05:28:13.050Z,12.08
2023-05-11T05:30:40.598Z,11.12
2023-05-11T05:33:07.626Z,10.96
2023-05-11T05:35:35.323Z,11.14
2023-05-11T05:38:02.094Z,11.36
2023-05-11T05:40:28.968Z,14.06
2023-05-11T05:42:56.305Z,15.26
2023-05-11T05:45:24.112Z,16.13
2023-05-11T05:47:51.844Z,17.10
2023-05-11T05:50:19.608Z,18.08
2023-05-11T05:52:47.645Z,18.52
2023-05-11T05:55:14.568Z,18.68
2023-05-11T05:57:43.043Z,18.87
2023-05-11T06:00:11.120Z,18.81
2023-05-11T06:02:41.634Z,19.00
2023-05-11T06:05:11.173Z,19.29
2023-05-11T06:07:38.741Z,19.06
2023-05-11T06:10:06.172Z,15.32
2023-05-11T06:12:33.782Z,14.69
2023-05-11T06:15:00.897Z,15.47
2023-05-11T06:17:28.797Z,16.83
2023-05-11T06:19:55.645Z,15.80
2023-05-11T06:22:23.764Z,15.35
2023-05-11T06:24:50.957Z,15.41
2023-05-11T06:27:18.693Z,15.36
2023-05-11T06:29:45.768Z,14.86
2023-05-11T06:32:19.006Z,15.03
2023-05-11T06:34:46.637Z,14.52
2023-05-11T06:37:20.302Z,14.08
2023-05-11T06:39:49.070Z,14.19
2023-05-11T06:42:15.941Z,14.73
2023-05-11T06:44:42.859Z,14.96
2023-05-11T06:47:10.701Z,15.43
2023-05-11T06:49:37.704Z,17.64
2023-05-11T06:52:04.498Z,18.81
2023-05-11T06:54:31.364Z,19.93
2023-05-11T06:56:58.333Z,20.75
2023-05-11T06:59:26.501Z,21.58
2023-05-11T07:01:53.184Z,21.26
2023-05-11T07:04:19.965Z,17.68
2023-05-11T07:06:46.702Z,17.41
2023-05-11T07:09:13.437Z,17.41
2023-05-11T07:11:40.878Z,17.63
2023-05-11T07:14:07.898Z,17.38
2023-05-11T07:16:37.781Z,17.35
2023-05-11T07:19:05.894Z,17.58
2023-05-11T07:21:33.883Z,17.45
2023-05-11T07:24:00.662Z,17.54
2023-05-11T07:26:27.430Z,17.08
2023-05-11T07:28:54.323Z,17.00
2023-05-11T07:31:21.852Z,17.31
2023-05-11T07:33:48.653Z,17.95
2023-05-11T07:36:15.415Z,17.99
2023-05-11T07:38:42.128Z,17.46
2023-05-11T07:41:10.796Z,16.89
2023-05-11T07:43:39.292Z,16.31
2023-05-11T07:46:06.746Z,16.08
2023-05-11T07:48:33.523Z,16.11
2023-05-11T07:51:01.097Z,15.98
2023-05-11T07:53:28.329Z,15.80
2023-05-11T07:55:55.576Z,15.72
2023-05-11T07:58:22.574Z,15.94
2023-05-11T08:00:49.302Z,16.08
2023-05-11T08:03:16.284Z,16.07
2023-05-11T08:05:43.144Z,16.13
2023-05-11T08:08:10.077Z,16.30
2023-05-11T08:10:37.041Z,16.36
2023-05-11T08:13:03.753Z,16.28
2023-05-11T08:15:30.500Z,15.91
2023-05-11T08:17:57.337Z,15.82
2023-05-11T08:20:24.254Z,16.00
2023-05-11T08:22:51.106Z,16.18
2023-05-11T08:25:18.264Z,16.28
2023-05-11T08:27:45.305Z,16.02
2023-05-11T08:30:12.642Z,15.91
2023-05-11T08:32:57.222Z,15.92
2023-05-11T08:35:25.212Z,15.98
2023-05-11T08:37:51.916Z,16.06
2023-05-11T08:40:18.956Z,16.81
2023-05-11T08:42:45.780Z,16.42
2023-05-11T08:45:13.043Z,16.51
2023-05-11T08:47:40.230Z,16.45
2023-05-11T08:50:07.232Z,16.53
2023-05-11T08:52:34.333Z,16.46
2023-05-11T08:55:01.168Z,16.46
2023-05-11T08:57:28.939Z,16.57
2023-05-11T08:59:55.713Z,16.61
2023-05-11T09:02:22.543Z,16.47
2023-05-11T09:04:49.444Z,16.43
2023-05-11T09:07:19.136Z,16.42
2023-05-11T09:09:46.662Z,16.42
2023-05-11T09:12:13.697Z,17.10
2023-05-11T09:14:40.581Z,18.23
2023-05-11T09:17:07.693Z,17.62
2023-05-11T09:19:34.658Z,17.60
2023-05-11T09:22:01.376Z,17.18
2023-05-11T09:24:28.123Z,17.88
2023-05-11T09:29:51.952Z,16.95
2023-05-11T09:32:19.024Z,16.70
2023-05-11T09:34:46.199Z,16.44
2023-05-11T09:37:17.419Z,16.54
2023-05-11T09:42:20.901Z,16.44
2023-05-11T09:44:47.690Z,16.70
2023-05-11T09:47:16.840Z,16.69
2023-05-11T09:49:44.419Z,16.82
2023-05-11T09:52:15.089Z,17.36
2023-05-11T09:54:43.504Z,17.68
2023-05-11T09:57:21.926Z,17.78
2023-05-11T09:59:49.369Z,17.72
2023-05-11T10:02:23.132Z,17.77
2023-05-11T10:04:50.718Z,17.72
2023-05-11T10:07:33.858Z,17.71
2023-05-11T10:10:01.461Z,17.62
2023-05-11T10:12:28.734Z,17.48
2023-05-11T10:14:59.212Z,17.39
2023-05-11T10:17:26.048Z,17.26
2023-05-11T10:19:54.451Z,17.15
2023-05-11T10:22:21.203Z,17.03
2023-05-11T10:24:48.032Z,16.95
2023-05-11T10:27:14.854Z,17.05
2023-05-11T10:29:41.893Z,17.14
2023-05-11T10:32:09.001Z,17.24
2023-05-11T10:34:36.171Z,17.80
2023-05-11T10:37:02.985Z,18.22
2023-05-11T10:39:29.727Z,18.73
2023-05-11T10:42:29.148Z,19.45
2023-05-11T10:45:33.589Z,19.20
2023-05-11T10:48:25.640Z,19.43
2023-05-11T10:51:33.279Z,19.30
2023-05-11T10:54:06.898Z,18.69
2023-05-11T10:56:43.878Z,18.30
2023-05-11T10:59:33.861Z,18.77
2023-05-11T11:02:02.065Z,17.76
2023-05-11T11:04:46.324Z,17.62
2023-05-11T11:07:17.642Z,17.34
2023-05-11T11:09:51.970Z,17.23
2023-05-11T11:12:20.005Z,17.30
2023-05-11T11:15:00.645Z,17.39
2023-05-11T11:17:31.722Z,17.35
2023-05-11T11:20:00.738Z,17.16
2023-05-11T11:22:40.891Z,17.47
2023-05-11T11:25:08.544Z,18.33
2023-05-11T11:27:41.312Z,18.86
2023-05-11T11:30:28.537Z,19.72
2023-05-11T11:33:07.308Z,19.04
2023-05-11T11:35:40.174Z,18.84
2023-05-11T11:38:11.666Z,18.70
2023-05-11T11:40:50.083Z,18.25
2023-05-11T11:43:27.821Z,18.10
2023-05-11T11:45:55.794Z,17.80
2023-05-11T11:48:29.547Z,18.01
2023-05-11T11:51:08.483Z,18.11
2023-05-11T11:53:35.958Z,17.97
2023-05-11T11:56:03.770Z,17.87
2023-05-11T11:58:46.265Z,17.97
2023-05-11T12:01:14.386Z,17.76
2023-05-11T12:03:45.692Z,17.53
2023-05-11T12:06:12.844Z,17.50
2023-05-11T12:08:40.426Z,17.49
2023-05-11T12:11:07.546Z,17.39
2023-05-11T12:13:34.939Z,17.33
2023-05-11T12:16:11.938Z,17.26
2023-05-11T12:18:39.841Z,17.44
2023-05-11T12:21:07.199Z,17.40
2023-05-11T12:23:36.026Z,17.51
2023-05-11T12:26:04.094Z,17.77
2023-05-11T12:28:32.193Z,18.04
2023-05-11T12:31:00.608Z,18.20
2023-05-11T12:33:30.440Z,18.04
2023-05-11T12:35:57.378Z,18.18
2023-05-11T12:38:24.140Z,18.68
2023-05-11T12:40:52.264Z,18.97
2023-05-11T12:43:20.362Z,19.09
2023-05-11T12:45:48.847Z,19.88
2023-05-11T12:48:16.070Z,19.36
2023-05-11T12:50:44.373Z,19.08
2023-05-11T12:53:15.347Z,18.96
2023-05-11T12:55:42.227Z,20.05
2023-05-11T12:58:11.607Z,19.61
2023-05-11T13:00:54.433Z,18.84
2023-05-11T13:03:25.357Z,18.78
2023-05-11T13:06:03.712Z,18.66
2023-05-11T13:08:30.969Z,18.90
2023-05-11T13:11:21.713Z,18.86
2023-05-11T13:13:49.150Z,18.68
2023-05-11T13:16:29.506Z,18.44
2023-05-11T13:19:01.002Z,18.15
2023-05-11T13:21:29.150Z,18.03
2023-05-11T13:23:56.196Z,17.94
2023-05-11T13:26:28.210Z,17.85
2023-05-11T13:29:08.688Z,17.88
2023-05-11T13:31:45.311Z,17.99
2023-05-11T13:34:12.140Z,18.58
2023-05-11T13:36:39.410Z,19.29
2023-05-11T13:39:06.617Z,19.64
2023-05-11T13:41:34.283Z,19.51
2023-05-11T13:44:01.131Z,19.54
2023-05-11T13:46:28.444Z,19.85
2023-05-11T13:48:55.536Z,19.46
2023-05-11T13:51:22.477Z,19.40
2023-05-11T13:53:49.386Z,19.57
2023-05-11T13:56:18.830Z,20.23
2023-05-11T13:58:45.722Z,20.88
2023-05-11T14:01:12.602Z,21.77
2023-05-11T14:03:39.455Z,21.42
2023-05-11T14:06:06.826Z,21.37
2023-05-11T14:08:33.903Z,21.19
2023-05-11T14:11:01.131Z,21.14
2023-05-11T14:13:28.204Z,21.11
2023-05-11T14:15:55.495Z,21.45
2023-05-11T14:18:24.258Z,21.56
2023-05-11T14:20:51.640Z,21.13
2023-05-11T14:23:18.380Z,21.12
2023-05-11T14:25:46.648Z,21.43
2023-05-11T14:28:13.443Z,21.73
2023-05-11T14:30:40.503Z,21.55
2023-05-11T14:33:07.363Z,21.29
2023-05-11T14:35:34.316Z,20.70
2023-05-11T14:38:02.351Z,20.36
2023-05-11T14:40:29.565Z,19.80
2023-05-11T14:42:56.297Z,19.38
2023-05-11T14:45:23.089Z,18.99
2023-05-11T14:47:50.374Z,18.82
2023-05-11T14:50:17.418Z,18.77
2023-05-11T14:52:46.435Z,19.35
2023-05-11T14:55:13.242Z,20.16
2023-05-11T14:57:40.135Z,20.34
2023-05-11T15:00:08.240Z,20.15
2023-05-11T15:02:35.468Z,20.18
2023-05-11T15:05:02.311Z,19.21
2023-05-11T15:07:29.383Z,18.50
2023-05-11T15:09:56.307Z,18.81
2023-05-11T15:12:23.653Z,19.43
2023-05-11T15:14:51.301Z,20.11
2023-05-11T15:17:18.077Z,20.32
2023-05-11T15:19:44.876Z,20.71
2023-05-11T15:22:13.340Z,20.60
2023-05-11T15:24:40.634Z,19.90
2023-05-11T15:27:07.407Z,19.54
2023-05-11T15:29:34.445Z,19.50
2023-05-11T15:32:01.324Z,19.73
2023-05-11T15:34:29.403Z,20.12
2023-05-11T15:36:58.113Z,19.98
2023-05-11T15:39:25.356Z,20.07
2023-05-11T15:41:52.292Z,19.52
2023-05-11T15:44:19.302Z,19.33
2023-05-11T15:46:46.817Z,19.52
2023-05-11T15:49:15.301Z,19.20
2023-05-11T15:51:42.056Z,18.59
2023-05-11T15:54:08.788Z,18.25
2023-05-11T15:56:35.909Z,18.20
2023-05-11T15:59:03.592Z,18.29
2023-05-11T16:01:30.509Z,18.31
2023-05-11T16:03:57.410Z,18.64
2023-05-11T16:06:24.515Z,18.91
2023-05-11T16:08:52.608Z,19.14
2023-05-11T16:11:19.467Z,18.98
2023-05-11T16:13:46.183Z,18.89
2023-05-11T16:16:13.367Z,18.91
2023-05-11T16:18:40.362Z,19.34
2023-05-11T16:21:07.813Z,19.17
2023-05-11T16:23:41.441Z,18.79
2023-05-11T16:26:08.428Z,18.60
2023-05-11T16:28:35.726Z,18.67
2023-05-11T16:31:02.685Z,18.61
2023-05-11T16:33:29.492Z,18.44
2023-05-11T16:35:56.477Z,18.22
2023-05-11T16:38:23.318Z,18.02
2023-05-11T16:40:50.310Z,17.62
2023-05-11T16:43:17.020Z,17.11
2023-05-11T16:45:43.965Z,16.54
2023-05-11T16:48:12.173Z,16.09
2023-05-11T16:50:38.932Z,15.74
2023-05-11T16:53:06.021Z,15.48
2023-05-11T16:55:34.718Z,15.29
2023-05-11T16:58:01.739Z,15.11
2023-05-11T17:00:29.014Z,14.93
2023-05-11T17:02:56.064Z,14.69
2023-05-11T17:05:23.627Z,14.41
2023-05-11T17:07:50.529Z,14.22
2023-05-11T17:10:17.706Z,14.00
2023-05-11T17:12:45.110Z,14.08
2023-05-11T17:15:12.187Z,14.01
2023-05-11T17:17:40.591Z,13.78
2023-05-11T17:20:09.659Z,13.71
2023-05-11T17:22:37.321Z,13.68
2023-05-11T17:25:05.703Z,13.32
2023-05-11T17:27:32.485Z,13.12
2023-05-11T17:29:59.544Z,13.06
2023-05-11T17:32:26.477Z,13.25
2023-05-11T17:34:53.533Z,12.99
2023-05-11T17:37:31.095Z,12.80
2023-05-11T17:40:02.625Z,12.60
2023-05-11T17:42:30.195Z,12.43
2023-05-11T17:44:57.320Z,12.25
2023-05-11T17:47:24.165Z,12.00
2023-05-11T17:49:50.969Z,11.83
2023-05-11T17:52:17.866Z,11.80
2023-05-11T17:54:44.817Z,11.76
2023-05-11T17:57:11.657Z,11.89
2023-05-11T17:59:38.507Z,11.45
2023-05-11T18:02:05.373Z,11.48
2023-05-11T18:04:35.694Z,11.46
2023-05-11T18:07:03.431Z,11.29
2023-05-11T18:09:30.435Z,11.18
2023-05-11T18:11:57.608Z,11.13
2023-05-11T18:14:27.191Z,11.10
2023-05-11T18:16:53.979Z,11.12
2023-05-11T18:19:21.522Z,10.80
2023-05-11T18:21:49.263Z,10.91
2023-05-11T18:24:17.663Z,11.02
2023-05-11T18:26:44.574Z,10.66
2023-05-11T18:29:11.264Z,10.79
2023-05-11T18:31:38.111Z,10.78
2023-05-11T18:34:05.305Z,10.59
2023-05-11T18:36:32.608Z,10.56
2023-05-11T18:38:59.614Z,10.52
2023-05-11T18:41:27.402Z,10.13
2023-05-11T18:43:54.167Z,9.93
2023-05-11T18:46:21.282Z,12.61
2023-05-11T18:48:49.985Z,13.32
2023-05-11T18:51:19.395Z,12.75
2023-05-11T18:53:46.135Z,10.83
2023-05-11T18:56:12.952Z,11.83
2023-05-11T18:58:39.694Z,10.42
2023-05-11T19:01:07.104Z,9.71
2023-05-11T19:03:35.598Z,9.47
2023-05-11T19:06:02.606Z,9.29
2023-05-11T19:08:29.885Z,9.19
2023-05-11T19:11:04.249Z,9.10
2023-05-11T19:13:31.404Z,8.98
2023-05-11T19:15:58.133Z,8.84
2023-05-11T19:18:26.537Z,8.77
2023-05-11T19:20:53.422Z,8.70
2023-05-11T19:23:20.755Z,10.18
2023-05-11T19:25:47.514Z,9.80
2023-05-11T19:28:14.676Z,8.61
2023-05-11T19:30:41.491Z,8.39
2023-05-11T19:33:08.732Z,8.27
2023-05-11T19:35:35.537Z,8.27
2023-05-11T19:38:02.663Z,8.44
2023-05-11T19:43:00.435Z,8.14
2023-05-11T19:45:33.423Z,7.98
2023-05-11T19:48:00.334Z,7.93
2023-05-11T19:50:27.436Z,7.86
2023-05-11T19:52:54.743Z,7.90
2023-05-11T19:55:23.885Z,8.14
2023-05-11T19:57:51.228Z,8.81
2023-05-11T20:00:19.039Z,8.43
2023-05-11T20:02:46.398Z,8.31
2023-05-11T20:05:13.386Z,8.28
2023-05-11T20:07:42.617Z,8.11
2023-05-11T20:10:10.054Z,8.00
2023-05-11T20:12:37.968Z,7.81
2023-05-11T20:15:06.736Z,7.61
2023-05-11T20:17:35.110Z,7.86
2023-05-11T20:20:02.164Z,9.95
2023-05-11T20:22:30.688Z,10.23
2023-05-11T20:24:57.615Z,10.39
2023-05-11T20:27:24.857Z,10.42
2023-05-11T20:29:52.119Z,10.43
2023-05-11T20:32:18.889Z,10.45
2023-05-11T20:34:45.726Z,10.47
2023-05-11T20:37:13.588Z,10.51
2023-05-11T20:39:40.362Z,10.43
2023-05-11T20:42:08.092Z,10.47
2023-05-11T20:44:35.066Z,10.44
2023-05-11T20:47:01.926Z,10.45
2023-05-11T20:49:38.161Z,10.56
2023-05-11T20:52:07.103Z,10.63
2023-05-11T20:54:34.301Z,10.52
2023-05-11T20:57:04.638Z,10.45
2023-05-11T21:02:02.049Z,7.63
2023-05-11T21:04:30.758Z,8.33
2023-05-11T21:06:57.821Z,7.27
2023-05-11T21:09:24.843Z,7.27
2023-05-11T21:11:51.832Z,9.30
2023-05-11T21:14:18.597Z,9.72
2023-05-11T21:16:45.508Z,9.84
2023-05-11T21:19:12.357Z,9.87
2023-05-11T21:21:39.127Z,8.76
2023-05-11T21:24:06.226Z,8.40
2023-05-11T21:26:33.508Z,8.99
2023-05-11T21:29:00.234Z,8.27
2023-05-11T21:31:27.017Z,6.99
2023-05-11T21:33:53.820Z,8.31
2023-05-11T21:36:21.663Z,7.33
2023-05-11T21:38:48.495Z,6.47
2023-05-11T21:41:16.230Z,6.39
2023-05-11T21:43:42.958Z,8.04
2023-05-11T21:46:09.923Z,9.10
2023-05-11T21:48:36.703Z,9.31
2023-05-11T21:51:03.642Z,9.44
2023-05-11T21:53:30.588Z,9.67
2023-05-11T21:55:57.458Z,9.73
2023-05-11T21:58:24.220Z,9.78
2023-05-11T22:00:51.882Z,9.83
2023-05-11T22:03:18.952Z,9.76
2023-05-11T22:05:46.454Z,9.71
2023-05-11T22:08:15.262Z,9.66
2023-05-11T22:10:42.664Z,9.59
2023-05-11T22:13:09.394Z,9.55
2023-05-11T22:15:36.673Z,9.52
2023-05-11T22:18:04.440Z,9.46
2023-05-11T22:20:31.544Z,9.39
2023-05-11T22:22:58.603Z,9.23
2023-05-11T22:25:25.352Z,9.20
2023-05-11T22:27:52.112Z,9.20
2023-05-11T22:30:19.557Z,9.23
2023-05-11T22:32:46.720Z,9.20
2023-05-11T22:35:13.528Z,9.14
2023-05-11T22:37:40.260Z,9.10
2023-05-11T22:40:08.280Z,9.12
2023-05-11T22:42:35.219Z,9.26
2023-05-11T22:45:01.936Z,9.35
2023-05-11T22:47:28.992Z,9.58
2023-05-11T22:49:55.889Z,9.62
2023-05-11T22:52:22.620Z,9.65
2023-05-11T22:54:54.577Z,9.61
2023-05-11T22:57:23.400Z,9.75
2023-05-11T22:59:50.226Z,9.79
2023-05-11T23:02:17.086Z,9.70
2023-05-11T23:04:47.941Z,9.63
2023-05-11T23:07:14.634Z,9.88
2023-05-11T23:09:41.363Z,10.01
2023-05-11T23:12:08.167Z,8.56
2023-05-11T23:14:35.416Z,6.36
2023-05-11T23:17:02.228Z,8.73
2023-05-11T23:19:29.458Z,9.30
2023-05-11T23:21:56.308Z,9.35
2023-05-11T23:24:23.053Z,7.38
2023-05-11T23:26:50.118Z,6.11
2023-05-11T23:29:16.922Z,5.93
2023-05-11T23:31:43.727Z,6.78
2023-05-11T23:34:10.449Z,9.07
2023-05-11T23:36:37.583Z,9.48
2023-05-11T23:39:04.831Z,9.62
2023-05-11T23:41:32.098Z,9.67
2023-05-11T23:43:59.948Z,9.70
2023-05-11T23:46:26.686Z,9.78
2023-05-11T23:48:54.050Z,9.82
2023-05-11T23:51:20.947Z,9.88
2023-05-11T23:53:47.715Z,9.91
2023-05-11T23:56:14.588Z,10.01
2023-05-11T23:58:44.917Z,9.98
